Boca Raton, FL (33433)

10:10 PM EST on December 26, 2014 (GMT -0500)
Terra Tranquila | Change Station
CLOSE
Current Station
Personal Weather Station
Location: Boca Raton, FL
Elevation: 30 ft
Nearby Weather Stations

Elev 30 ft 26.34 °N, 80.15 °W | Updated 23 seconds ago

Overcast
Overcast
72.0 °F
Feels Like 72.0 °F
N
0.0
Wind Variable Wind from NNW
Gusts 0.0 mph

Today
High -- | Low -- °F
--% Chance of Precip.
Yesterday
High -- | Low -- °F
Precip. -- in
7:06 AM 5:36 PM
Waxing Crescent, 32% visible
Pressure 30.19 in
Visibility 6.0 miles
Clouds Mostly Cloudy 2100 ft
Mostly Cloudy 3000 ft
Overcast 3800 ft
Dew Point 70 °F
Humidity 94%
Rainfall 0.20 in
Snow Depth Not available.
UV 0 out of 12
Pollen 4.50 out of 12
Air Quality Not available.
Flu Activity Not available.
METAR KPMP 270253Z AUTO 36003KT 6SM BR BKN021 BKN030 OVC038 22/22 A3019 RMK AO2 SLP224 T02170217 53009

More Conditions Fewer Conditions

Pressure 30.19 in
Visibility 6.0 miles
Clouds Mostly Cloudy 2100 ft
Mostly Cloudy 3000 ft
Overcast 3800 ft
Dew Point 70 °F
Humidity 94%
Rainfall 0.20 in
Snow Depth Not available.
UV 0 out of 12
Pollen 4.50 out of 12
Air Quality Not available.
Flu Activity Not available.
METAR KPMP 270253Z AUTO 36003KT 6SM BR BKN021 BKN030 OVC038 22/22 A3019 RMK AO2 SLP224 T02170217 53009

More Conditions Fewer Conditions

10-Day Weather Forecast

Almanac

Astronomy

Dec. 26, 2014 Rise Set
Actual Time
Civil Twilight
Nautical Twilight
Astronomical Twilight
Moon
Length of Visible Light
Length of Day
Tomorrow will be .
, % of the Moon is Illuminated

Today's Extremes

State Highs State Lows

Community

WunderPhotos

Upload Photos

1,780,830 photos uploaded!

WunderBlogs® & News

Nearby

Air Quality

  Air Quality AQ Index Pollutant
Not available.

Snow Depth

Station Depth Elevation

Earthquake Activity

City Distance Mag. Time & Date
Minimum magnitude displayed is 2.5.

Coastal Water Temperatures

Place Temperature

Nearby Weather Stations